ROTAER D-AMDT 8/24 Ver mudanças

Caruaru ( SNRU ) / CARUARU, PE 08 17 04S/036 00 39W
AD PUB 3W UTC-3 HJ 576 (1890)

13 - ( 1800x30 ASPH 30/F/A/X/U ) - 31

SBRE (CINDACTA 3)
SER - S1  

RMK -

OBSTÁCULO DE AERÓDROMO
  1. OBST montado (casa) DIST 101M da THR 31, AZM 130DEG, ELEV 1848FT
INFORMAÇÃO METEOROLÓGICA FORNECIDA
  1. ERAA FREQ 127.800 MHZ
CARACTERÍSTICAS FÍSICAS DAS PISTAS
  1. RWY 31 FST 112M CLSD devido OBST
REGULAMENTOS PARA TRÁFEGO LOCAL
  1. OBS ACFT e planadores em FLT de instrução nas VCY
INFORMAÇÃO ADICIONAL
  1. OBS concentração de pássaros nas proximidades da RWY 13/31.
TEMP (0)

Suplementos AIP (0)

NOTAM (Carregando ...)


Nascer/Por do Sol

08:26

20:21


METAR

142000Z AUTO 16011KT CAVOK 26/22 Q1013=

TAF


OPEA/Obstáculos


Cartas (0)


Rotas Preferenciais (0)